Pickering, Louisiana
Current Conditions -  °F | °C
As of 2:58 PM on Thursday 23 Oct 2014 (Local Time) from KPOE Reporting Station
Broken Clouds Broken Clouds  
Wind Chill: 70°   Ceiling: 17000
Heat Index: 70°   Visibility: 10mi
Dew Point: 51°   Wind: 5mph
Humidity: 52%   Direction: 330°NNW
Pressure: 30.08"   Gusts: NA
Location:  31.2063°N, 93.1344°W
Report Text: KPOE 231958Z AUTO 33004KT 10SM BKN170 21/11 A3008 RMK AO2 SLP187 T02110108
Loading
Personal Weather Stations






























Interactive Weather Map
Tropical Storm Tracking
New forecast layout! Learn more

10-Day Weather Forecast

Advertisements
Track Severe Weather on mobile